Sembria — V2QG7 — position and weather

sailwx.info

Track history (hours):
 
Tides and Currents Weather Stations Pressure Air Temp Water Temp Dewpoint Dewpoint Depression Visibility Wind Speed Wind Dir Waves Ship Positions

Sembria

Last reported at 2014-Dec-21 21:33 UTC. Time now 2014-Dec-22 09:13 UTC.
Position N 35°60' W 005°14'.

Length 107 m; draft 6.5 m.

Type: Cargo ship. MMSI: 304010760.

Date/timePositionNaut miles runAvg speedWind from/ knotsBaromVisibWave heightAir tempDewpointWater temp
2014-Dec-21 21:33N 35°60' W 005°14'8 8.2
2014-Dec-21 20:33N 35°58' W 005°24'191 8.6
2014-Dec-20 22:29N 36°34' W 009°16'8 8.8
2014-Dec-20 21:33N 36°39' W 009°24'9 8.8
2014-Dec-20 20:33N 36°46' W 009°31'9 9.1
2014-Dec-20 19:33N 36°54' W 009°35'37 9.3
2014-Dec-20 15:33N 37°31' W 009°45'10 9.5
2014-Dec-20 14:33N 37°40' W 009°48'12 9.8
2014-Dec-20 13:18N 37°52' W 009°51'7 9.5
2014-Dec-20 12:31N 37°59' W 009°54'12 9.3
2014-Dec-20 11:13N 38°11' W 009°57'45 9.2
2014-Dec-20 06:20N 38°55' W 010°06'  
2014-Dec-15 22:20N 50°25' W 002°04'810.4
2014-Dec-15 21:32N 50°30' W 001°54'1010.6
2014-Dec-15 20:33N 50°37' W 001°41'1211.4
2014-Dec-15 19:29N 50°44' W 001°26'7 7.9
2014-Dec-15 18:33N 50°51' W 001°20'5 1.7
2014-Dec-15 15:21N 50°54' W 001°26'0 0.0
2014-Dec-15 14:30N 50°54' W 001°26'0 0.0
2014-Dec-15 13:03N 50°54' W 001°26'0 0.0
2014-Dec-15 12:27N 50°54' W 001°26'0 0.0
2014-Dec-15 11:27N 50°54' W 001°26'0 0.0
2014-Dec-15 10:18N 50°54' W 001°26'0 0.0
2014-Dec-15 09:09N 50°54' W 001°26'0 0.0
2014-Dec-15 08:12N 50°54' W 001°26'0 0.0
2014-Dec-15 07:27N 50°54' W 001°26'0 0.0
2014-Dec-15 06:30N 50°54' W 001°26'0 0.0
2014-Dec-15 05:27N 50°54' W 001°26'0 0.0
2014-Dec-15 04:33N 50°54' W 001°26'0 0.0
2014-Dec-15 03:09N 50°54' W 001°26'0 0.0
2014-Dec-15 01:06N 50°54' W 001°26'0 0.0
2014-Dec-14 21:30N 50°54' W 001°26'0 0.0
2014-Dec-14 20:33N 50°54' W 001°26'0 0.0
2014-Dec-14 18:15N 50°54' W 001°26'0 0.0
2014-Dec-14 16:21N 50°54' W 001°26'0 0.0
2014-Dec-14 14:33N 50°54' W 001°26'0 0.0
2014-Dec-14 13:33N 50°54' W 001°26'0 0.0
2014-Dec-14 11:33N 50°54' W 001°26'0 0.0
2014-Dec-14 10:33N 50°54' W 001°26'0 0.0
2014-Dec-14 08:21N 50°54' W 001°26'0 0.0
2014-Dec-14 07:33N 50°54' W 001°26'0 0.0
2014-Dec-14 06:33N 50°54' W 001°26'0 0.0
2014-Dec-14 05:30N 50°54' W 001°26'0 0.0
2014-Dec-14 04:33N 50°54' W 001°26'0 0.0
2014-Dec-14 03:30N 50°54' W 001°26'0 0.0
2014-Dec-14 02:33N 50°54' W 001°26'0 0.0
2014-Dec-14 01:33N 50°54' W 001°26'0 0.0
2014-Dec-14 00:09N 50°54' W 001°26'0 0.0
2014-Dec-13 23:18N 50°54' W 001°26'0 0.0
2014-Dec-13 22:33N 50°54' W 001°26'0 0.0
2014-Dec-13 21:33N 50°54' W 001°26'0 0.0
2014-Dec-13 20:33N 50°54' W 001°26'0 0.0
2014-Dec-13 19:30N 50°54' W 001°26'0 0.0
2014-Dec-13 18:33N 50°54' W 001°26'0 0.0
2014-Dec-13 17:33N 50°54' W 001°26'0 0.0
2014-Dec-13 16:27N 50°54' W 001°26'0 0.0
2014-Dec-13 15:24N 50°54' W 001°26'0 0.0
2014-Dec-13 14:15N 50°54' W 001°26'0 0.0
2014-Dec-13 13:09N 50°54' W 001°26'0 0.0
2014-Dec-13 12:33N 50°54' W 001°26'0 0.0
2014-Dec-13 11:21N 50°54' W 001°26'0 0.0
2014-Dec-13 10:27N 50°54' W 001°26'0 0.0
2014-Dec-13 09:15N 50°54' W 001°26'0 0.0
2014-Dec-13 08:09N 50°54' W 001°26'0 0.0
2014-Dec-13 07:33N 50°54' W 001°26'0 0.0
2014-Dec-13 06:33N 50°54' W 001°26'0 0.0
2014-Dec-13 05:33N 50°54' W 001°26'0 0.0
2014-Dec-13 04:03N 50°54' W 001°26'0 0.0
2014-Dec-13 03:33N 50°54' W 001°26'0 0.0
2014-Dec-13 02:27N 50°54' W 001°26'0 0.0
2014-Dec-13 01:33N 50°54' W 001°26'0 0.0
2014-Dec-13 00:33N 50°54' W 001°26'0 0.0
2014-Dec-12 23:33N 50°54' W 001°26'0 0.0
2014-Dec-12 22:33N 50°54' W 001°26'0 0.0
2014-Dec-12 21:33N 50°54' W 001°26'0 0.0
2014-Dec-12 20:15N 50°54' W 001°26'0 0.0
2014-Dec-12 19:09N 50°54' W 001°26'0 0.0
2014-Dec-12 18:09N 50°54' W 001°26'0 0.0
2014-Dec-12 15:15N 50°54' W 001°26'0 0.0
2014-Dec-12 13:30N 50°54' W 001°26'0 0.0
2014-Dec-12 11:15N 50°54' W 001°26'0 0.0
2014-Dec-12 10:09N 50°54' W 001°26'0 0.0
2014-Dec-12 07:33N 50°54' W 001°26'0 0.0
2014-Dec-12 05:15N 50°54' W 001°26'0 0.0
2014-Dec-12 00:21N 50°54' W 001°26'  
Track history (hours):
 
Tides and Currents Weather Stations Pressure Air Temp Water Temp Dewpoint Dewpoint Depression Visibility Wind Speed Wind Dir Waves Ship Positions

Sembria

Last reported at 2014-Dec-21 21:33 UTC. Time now 2014-Dec-22 09:13 UTC.
Position N 35°60' W 005°14'.

Length 107 m; draft 6.5 m.

Type: Cargo ship. MMSI: 304010760.

Date/timePositionNaut miles runAvg speedWind from/ knotsBaromVisibWave heightAir tempDewpointWater temp
2014-Dec-21 21:33N 35°60' W 005°14'8 8.2
2014-Dec-21 20:33N 35°58' W 005°24'191 8.6
2014-Dec-20 22:29N 36°34' W 009°16'8 8.8
2014-Dec-20 21:33N 36°39' W 009°24'9 8.8
2014-Dec-20 20:33N 36°46' W 009°31'9 9.1
2014-Dec-20 19:33N 36°54' W 009°35'37 9.3
2014-Dec-20 15:33N 37°31' W 009°45'10 9.5
2014-Dec-20 14:33N 37°40' W 009°48'12 9.8
2014-Dec-20 13:18N 37°52' W 009°51'7 9.5
2014-Dec-20 12:31N 37°59' W 009°54'12 9.3
2014-Dec-20 11:13N 38°11' W 009°57'45 9.2
2014-Dec-20 06:20N 38°55' W 010°06'  
2014-Dec-15 22:20N 50°25' W 002°04'810.4
2014-Dec-15 21:32N 50°30' W 001°54'1010.6
2014-Dec-15 20:33N 50°37' W 001°41'1211.4
2014-Dec-15 19:29N 50°44' W 001°26'7 7.9
2014-Dec-15 18:33N 50°51' W 001°20'5 1.7
2014-Dec-15 15:21N 50°54' W 001°26'0 0.0
2014-Dec-15 14:30N 50°54' W 001°26'0 0.0
2014-Dec-15 13:03N 50°54' W 001°26'0 0.0
2014-Dec-15 12:27N 50°54' W 001°26'0 0.0
2014-Dec-15 11:27N 50°54' W 001°26'0 0.0
2014-Dec-15 10:18N 50°54' W 001°26'0 0.0
2014-Dec-15 09:09N 50°54' W 001°26'0 0.0
2014-Dec-15 08:12N 50°54' W 001°26'0 0.0
2014-Dec-15 07:27N 50°54' W 001°26'0 0.0
2014-Dec-15 06:30N 50°54' W 001°26'0 0.0
2014-Dec-15 05:27N 50°54' W 001°26'0 0.0
2014-Dec-15 04:33N 50°54' W 001°26'0 0.0
2014-Dec-15 03:09N 50°54' W 001°26'0 0.0
2014-Dec-15 01:06N 50°54' W 001°26'0 0.0
2014-Dec-14 21:30N 50°54' W 001°26'0 0.0
2014-Dec-14 20:33N 50°54' W 001°26'0 0.0
2014-Dec-14 18:15N 50°54' W 001°26'0 0.0
2014-Dec-14 16:21N 50°54' W 001°26'0 0.0
2014-Dec-14 14:33N 50°54' W 001°26'0 0.0
2014-Dec-14 13:33N 50°54' W 001°26'0 0.0
2014-Dec-14 11:33N 50°54' W 001°26'0 0.0
2014-Dec-14 10:33N 50°54' W 001°26'0 0.0
2014-Dec-14 08:21N 50°54' W 001°26'0 0.0
2014-Dec-14 07:33N 50°54' W 001°26'0 0.0
2014-Dec-14 06:33N 50°54' W 001°26'0 0.0
2014-Dec-14 05:30N 50°54' W 001°26'0 0.0
2014-Dec-14 04:33N 50°54' W 001°26'0 0.0
2014-Dec-14 03:30N 50°54' W 001°26'0 0.0
2014-Dec-14 02:33N 50°54' W 001°26'0 0.0
2014-Dec-14 01:33N 50°54' W 001°26'0 0.0
2014-Dec-14 00:09N 50°54' W 001°26'0 0.0
2014-Dec-13 23:18N 50°54' W 001°26'0 0.0
2014-Dec-13 22:33N 50°54' W 001°26'0 0.0
2014-Dec-13 21:33N 50°54' W 001°26'0 0.0
2014-Dec-13 20:33N 50°54' W 001°26'0 0.0
2014-Dec-13 19:30N 50°54' W 001°26'0 0.0
2014-Dec-13 18:33N 50°54' W 001°26'0 0.0
2014-Dec-13 17:33N 50°54' W 001°26'0 0.0
2014-Dec-13 16:27N 50°54' W 001°26'0 0.0
2014-Dec-13 15:24N 50°54' W 001°26'0 0.0
2014-Dec-13 14:15N 50°54' W 001°26'0 0.0
2014-Dec-13 13:09N 50°54' W 001°26'0 0.0
2014-Dec-13 12:33N 50°54' W 001°26'0 0.0
2014-Dec-13 11:21N 50°54' W 001°26'0 0.0
2014-Dec-13 10:27N 50°54' W 001°26'0 0.0
2014-Dec-13 09:15N 50°54' W 001°26'0 0.0
2014-Dec-13 08:09N 50°54' W 001°26'0 0.0
2014-Dec-13 07:33N 50°54' W 001°26'0 0.0
2014-Dec-13 06:33N 50°54' W 001°26'0 0.0
2014-Dec-13 05:33N 50°54' W 001°26'0 0.0
2014-Dec-13 04:03N 50°54' W 001°26'0 0.0
2014-Dec-13 03:33N 50°54' W 001°26'0 0.0
2014-Dec-13 02:27N 50°54' W 001°26'0 0.0
2014-Dec-13 01:33N 50°54' W 001°26'0 0.0
2014-Dec-13 00:33N 50°54' W 001°26'0 0.0
2014-Dec-12 23:33N 50°54' W 001°26'0 0.0
2014-Dec-12 22:33N 50°54' W 001°26'0 0.0
2014-Dec-12 21:33N 50°54' W 001°26'0 0.0
2014-Dec-12 20:15N 50°54' W 001°26'0 0.0
2014-Dec-12 19:09N 50°54' W 001°26'0 0.0
2014-Dec-12 18:09N 50°54' W 001°26'0 0.0
2014-Dec-12 15:15N 50°54' W 001°26'0 0.0
2014-Dec-12 13:30N 50°54' W 001°26'0 0.0
2014-Dec-12 11:15N 50°54' W 001°26'0 0.0
2014-Dec-12 10:09N 50°54' W 001°26'0 0.0
2014-Dec-12 07:33N 50°54' W 001°26'0 0.0
2014-Dec-12 05:15N 50°54' W 001°26'0 0.0
2014-Dec-12 00:21N 50°54' W 001°26'  

Dump ship's entire track history